createdAt,value
2022-12-01T00:03:25.608Z,101033.81
2022-12-01T00:08:28.759Z,101042.84
2022-12-01T00:13:30.786Z,101045.47
2022-12-01T00:18:32.805Z,101057.81
2022-12-01T00:23:34.818Z,101059.59
2022-12-01T00:28:36.814Z,101053.06
2022-12-01T00:33:39.703Z,101058.34
2022-12-01T00:38:42.052Z,101049.00
2022-12-01T00:43:44.045Z,101062.91
2022-12-01T00:48:46.114Z,101066.12
2022-12-01T00:53:48.116Z,101069.78
2022-12-01T00:58:50.122Z,101064.97
2022-12-01T01:03:52.125Z,101078.94
2022-12-01T01:08:54.146Z,101077.63
2022-12-01T01:13:56.175Z,101068.88
2022-12-01T01:18:58.400Z,101047.88
2022-12-01T01:24:00.462Z,101064.63
2022-12-01T01:29:04.699Z,101057.03
2022-12-01T01:34:06.745Z,101062.62
2022-12-01T01:39:08.776Z,101059.94
2022-12-01T01:44:48.329Z,101065.03
2022-12-01T01:49:50.738Z,101062.41
2022-12-01T01:54:55.702Z,101064.16
2022-12-01T02:00:11.970Z,101057.06
2022-12-01T02:05:20.333Z,101061.69
2022-12-01T02:10:28.240Z,101047.53
2022-12-01T02:16:08.834Z,101054.34
2022-12-01T02:21:37.112Z,101051.13
2022-12-01T02:26:49.118Z,101038.59
2022-12-01T02:32:06.311Z,101032.66
2022-12-01T02:37:29.458Z,101063.13
2022-12-01T02:43:02.238Z,101052.94
2022-12-01T02:48:11.151Z,101056.81
2022-12-01T02:53:17.403Z,101041.38
2022-12-01T02:58:20.499Z,101030.97
2022-12-01T03:03:37.689Z,101039.56
2022-12-01T03:08:56.503Z,101024.78
2022-12-01T03:14:31.280Z,101043.59
2022-12-01T03:19:43.691Z,101032.16
2022-12-01T03:24:49.397Z,101038.47
2022-12-01T03:29:55.782Z,101044.56
2022-12-01T03:35:04.802Z,101038.03
2022-12-01T03:40:12.156Z,101038.59
2022-12-01T03:45:24.596Z,101019.44
2022-12-01T03:50:40.895Z,101019.75
2022-12-01T03:55:46.729Z,101036.91
2022-12-01T04:00:53.217Z,101021.25
2022-12-01T04:05:55.773Z,101036.63
2022-12-01T04:10:57.770Z,101032.91
2022-12-01T04:15:59.824Z,101006.41
2022-12-01T04:21:01.827Z,101003.41
2022-12-01T04:26:05.364Z,101024.94
2022-12-01T04:31:07.456Z,101035.34
2022-12-01T04:36:10.046Z,101009.47
2022-12-01T04:41:13.141Z,101030.66
2022-12-01T04:46:15.195Z,101015.88
2022-12-01T04:51:17.869Z,101034.41
2022-12-01T04:56:20.078Z,101039.44
2022-12-01T05:01:22.186Z,101053.31
2022-12-01T05:06:27.482Z,101060.78
2022-12-01T05:11:30.941Z,101033.44
2022-12-01T05:16:34.276Z,101031.75
2022-12-01T05:21:36.365Z,101041.78
2022-12-01T05:26:38.814Z,101034.28
2022-12-01T05:31:42.459Z,101036.31
2022-12-01T05:36:44.588Z,101050.19
2022-12-01T05:41:46.617Z,101039.38
2022-12-01T05:46:48.662Z,101056.41
2022-12-01T05:51:50.649Z,101046.56
2022-12-01T05:56:52.674Z,101031.06
2022-12-01T06:01:54.744Z,101055.06
2022-12-01T06:06:57.107Z,101057.75
2022-12-01T06:11:59.133Z,101060.91
2022-12-01T06:17:01.225Z,101079.44
2022-12-01T06:22:04.059Z,101057.94
2022-12-01T06:27:06.104Z,101078.94
2022-12-01T06:32:08.205Z,101054.56
2022-12-01T06:37:11.320Z,101069.09
2022-12-01T06:42:13.321Z,101065.94
2022-12-01T06:47:16.005Z,101059.56
2022-12-01T06:52:18.041Z,101070.09
2022-12-01T06:57:20.126Z,101074.41
2022-12-01T07:02:22.834Z,101072.91
2022-12-01T07:07:24.954Z,101072.56
2022-12-01T07:12:31.092Z,101069.19
2022-12-01T07:17:33.641Z,101060.87
2022-12-01T07:22:36.174Z,101077.69
2022-12-01T07:27:38.228Z,101062.62
2022-12-01T07:32:40.319Z,101083.44
2022-12-01T07:37:42.303Z,101090.75
2022-12-01T07:42:44.287Z,101083.19
2022-12-01T07:47:46.329Z,101074.44
2022-12-01T07:52:51.595Z,101089.97
2022-12-01T07:57:53.685Z,101069.34
2022-12-01T08:02:55.734Z,101079.72
2022-12-01T08:07:59.322Z,101091.28
2022-12-01T08:13:01.400Z,101108.97
2022-12-01T08:18:03.584Z,101102.19
2022-12-01T08:23:05.594Z,101092.94
2022-12-01T08:28:07.645Z,101095.59
2022-12-01T08:33:09.632Z,101079.47
2022-12-01T08:38:12.244Z,101082.16
2022-12-01T08:43:34.746Z,101099.38
2022-12-01T08:48:36.789Z,101112.38
2022-12-01T08:53:45.275Z,101113.75
2022-12-01T08:58:48.205Z,101110.59
2022-12-01T09:04:05.491Z,101100.00
2022-12-01T09:09:11.267Z,101088.94
2022-12-01T09:14:15.312Z,101085.03
2022-12-01T09:19:24.093Z,101083.84
2022-12-01T09:24:27.635Z,101084.31
2022-12-01T09:29:30.285Z,101077.13
2022-12-01T09:34:32.295Z,101078.69
2022-12-01T09:39:34.297Z,101073.53
2022-12-01T09:44:55.857Z,101071.97
2022-12-01T09:50:36.248Z,101067.44
2022-12-01T09:55:39.414Z,101076.53
2022-12-01T10:00:43.662Z,101061.50
2022-12-01T10:06:26.153Z,101054.06
2022-12-01T10:11:39.562Z,101067.63
2022-12-01T10:17:05.639Z,101059.28
2022-12-01T10:22:26.056Z,101059.59
2022-12-01T10:28:19.142Z,101062.75
2022-12-01T10:33:25.450Z,101059.59
2022-12-01T10:38:36.857Z,101052.88
2022-12-01T10:43:42.314Z,101045.28
2022-12-01T10:48:56.661Z,101046.28
2022-12-01T10:54:06.962Z,101043.09
2022-12-01T10:59:40.744Z,101047.37
2022-12-01T11:04:50.617Z,101052.38
2022-12-01T11:10:06.132Z,101043.72
2022-12-01T11:15:17.897Z,101047.19
2022-12-01T11:20:35.517Z,101041.13
2022-12-01T11:25:38.165Z,101017.69
2022-12-01T11:30:40.398Z,101022.69
2022-12-01T11:35:48.060Z,101006.78
2022-12-01T11:40:55.567Z,100988.88
2022-12-01T11:46:02.647Z,100974.38
2022-12-01T11:51:16.171Z,100977.44
2022-12-01T11:56:28.018Z,100975.69
2022-12-01T12:01:55.213Z,100989.19
2022-12-01T12:07:10.801Z,100997.13
2022-12-01T12:12:24.562Z,100989.91
2022-12-01T12:17:26.570Z,100975.16
2022-12-01T12:22:34.236Z,100969.81
2022-12-01T12:27:46.632Z,100972.72
2022-12-01T12:33:13.773Z,100962.00
2022-12-01T12:38:40.526Z,100946.91
2022-12-01T12:44:04.985Z,100958.91
2022-12-01T12:49:36.338Z,100939.50
2022-12-01T12:54:57.210Z,100950.53
2022-12-01T13:00:21.479Z,100942.63
2022-12-01T13:05:27.120Z,100937.00
2022-12-01T13:10:31.842Z,100939.25
2022-12-01T13:15:36.532Z,100950.84
2022-12-01T13:20:38.993Z,100933.66
2022-12-01T13:25:42.390Z,100936.53
2022-12-01T13:30:58.362Z,100933.09
2022-12-01T13:36:38.143Z,100937.88
2022-12-01T13:41:35.099Z,100924.03
2022-12-01T13:46:37.134Z,100949.94
2022-12-01T13:52:17.875Z,100932.47
2022-12-01T13:57:27.115Z,100936.34
2022-12-01T14:02:34.759Z,100938.44
2022-12-01T14:07:38.852Z,100931.41
2022-12-01T14:12:45.724Z,100946.25
2022-12-01T14:17:57.896Z,100939.78
2022-12-01T14:23:18.688Z,100927.50
2022-12-01T14:28:55.742Z,100930.16
2022-12-01T14:34:12.107Z,100923.41
2022-12-01T14:39:24.593Z,100929.59
2022-12-01T14:44:44.802Z,100928.91
2022-12-01T14:49:46.777Z,100938.47
2022-12-01T14:54:49.953Z,100928.59
2022-12-01T15:00:13.952Z,100919.72
2022-12-01T15:05:18.704Z,100934.03
2022-12-01T15:10:34.611Z,100931.34
2022-12-01T15:15:37.729Z,100940.50
2022-12-01T15:20:46.356Z,100941.13
2022-12-01T15:25:49.783Z,100939.91
2022-12-01T15:30:54.945Z,100927.06
2022-12-01T15:35:58.827Z,100927.44
2022-12-01T15:46:30.952Z,100930.16
2022-12-01T15:51:32.995Z,100937.41
2022-12-01T15:56:40.921Z,100942.37
2022-12-01T16:01:44.307Z,100948.59
2022-12-01T16:06:58.116Z,100950.03
2022-12-01T16:12:27.397Z,100944.84
2022-12-01T16:17:45.260Z,100950.44
2022-12-01T16:22:51.254Z,100931.38
2022-12-01T16:27:54.845Z,100936.13
2022-12-01T16:33:06.105Z,100930.28
2022-12-01T16:38:20.818Z,100950.00
2022-12-01T16:43:25.272Z,100954.12
2022-12-01T16:48:27.380Z,100946.66
2022-12-01T16:53:29.410Z,100958.28
2022-12-01T16:58:32.014Z,100936.91
2022-12-01T17:03:34.139Z,100948.50
2022-12-01T17:08:36.315Z,100961.47
2022-12-01T17:13:38.496Z,100962.84
2022-12-01T17:18:40.671Z,100959.44
2022-12-01T17:23:42.707Z,100949.50
2022-12-01T17:28:44.792Z,100962.72
2022-12-01T17:33:46.891Z,100969.31
2022-12-01T17:38:49.677Z,100961.31
2022-12-01T17:43:52.011Z,100964.44
2022-12-01T17:48:54.041Z,100962.31
2022-12-01T17:53:56.055Z,100966.06
2022-12-01T17:58:58.070Z,100965.41
2022-12-01T18:04:00.162Z,100957.53
2022-12-01T18:09:02.670Z,100950.47
2022-12-01T18:14:04.823Z,100958.28
2022-12-01T18:19:06.898Z,100967.31
2022-12-01T18:24:10.240Z,100977.25
2022-12-01T18:29:18.649Z,100982.25
2022-12-01T18:34:20.830Z,100965.25
2022-12-01T18:39:22.901Z,100972.66
2022-12-01T18:44:25.015Z,100977.38
2022-12-01T18:49:27.103Z,100982.50
2022-12-01T18:54:29.422Z,100967.56
2022-12-01T18:59:31.676Z,100975.81
2022-12-01T19:04:33.728Z,100966.66
2022-12-01T19:09:35.839Z,100978.22
2022-12-01T19:14:37.921Z,100984.25
2022-12-01T19:19:39.966Z,100988.12
2022-12-01T19:24:44.881Z,100992.34
2022-12-01T19:29:52.252Z,100990.50
2022-12-01T19:34:54.662Z,100981.28
2022-12-01T19:39:56.715Z,100991.53
2022-12-01T19:44:59.046Z,100988.28
2022-12-01T19:50:01.618Z,100990.16
2022-12-01T19:55:05.850Z,100991.09
2022-12-01T20:00:08.411Z,101003.97
2022-12-01T20:05:10.459Z,101006.31
2022-12-01T20:10:13.217Z,101010.37
2022-12-01T20:15:16.311Z,100999.13
2022-12-01T20:20:18.547Z,100993.75
2022-12-01T20:25:20.550Z,101005.31
2022-12-01T20:30:22.617Z,100999.47
2022-12-01T20:35:24.692Z,101006.50
2022-12-01T20:40:26.783Z,101006.56
2022-12-01T20:45:28.869Z,101009.19
